Terminal Aerodrome Forecast
Issued by NWS

Home | Current Version | Previous Version | Text Only | Print | Product List | Glossary On
Versions: 1 2 3 4 5 6 7 8 9 10 11 12 13
000
FTUS43 KIND 281122
TAFBMG
TAF
KBMG 281122Z 2812/2912 15004KT P6SM FEW250
     FM281400 17008KT P6SM FEW250
     FM281800 19012KT P6SM FEW200
     FM290000 18006KT P6SM FEW250
     FM290900 19007KT P6SM FEW050 SCT200 WS020/22035KT
      AMD LTD TO CLD VIS AND WIND TIL 281300=

USA.gov is the U.S. government's official web portal to all federal, state and local government web resources and services.